sensor_id;sensor_type;location;lat;lon;timestamp;pressure;altitude;pressure_sealevel;temperature;humidity
70916;BME280;58557;50.982;-3.222;2022-08-19T09:26:48;100990.45;;;17.93;57.80
70916;BME280;58557;50.982;-3.222;2022-08-19T09:29:14;100988.28;;;19.66;51.56
70916;BME280;58557;50.982;-3.222;2022-08-19T09:31:39;100982.85;;;20.78;47.16
70916;BME280;58557;50.982;-3.222;2022-08-19T09:34:04;100991.49;;;20.23;47.37
70916;BME280;58557;50.982;-3.222;2022-08-19T09:36:32;100990.34;;;21.17;45.96
70916;BME280;58557;50.982;-3.222;2022-08-19T09:38:56;100995.91;;;20.67;45.81
70916;BME280;58557;50.982;-3.222;2022-08-19T09:41:23;100992.30;;;21.44;44.16
70916;BME280;58557;50.982;-3.222;2022-08-19T09:43:49;100990.94;;;22.09;42.15
70916;BME280;58557;50.982;-3.222;2022-08-19T09:46:12;100990.79;;;19.96;46.37
70916;BME280;58557;50.982;-3.222;2022-08-19T09:48:37;100987.59;;;20.94;44.86
70916;BME280;58557;50.982;-3.222;2022-08-19T09:51:04;100987.68;;;21.09;45.86
70916;BME280;58557;50.982;-3.222;2022-08-19T09:53:28;100982.86;;;22.23;43.17
70916;BME280;58557;50.982;-3.222;2022-08-19T09:55:55;100987.52;;;22.10;42.52
70916;BME280;58557;50.982;-3.222;2022-08-19T09:58:19;100983.98;;;21.58;42.17
70916;BME280;58557;50.982;-3.222;2022-08-19T10:00:45;100989.57;;;22.03;43.22
70916;BME280;58557;50.982;-3.222;2022-08-19T10:03:10;100986.64;;;22.23;41.75
70916;BME280;58557;50.982;-3.222;2022-08-19T10:05:36;100988.19;;;22.64;42.91
70916;BME280;58557;50.982;-3.222;2022-08-19T10:08:02;100984.05;;;21.49;44.08
70916;BME280;58557;50.982;-3.222;2022-08-19T10:10:27;100984.94;;;20.63;44.45
70916;BME280;58557;50.982;-3.222;2022-08-19T10:12:52;100982.27;;;22.50;42.36
70916;BME280;58557;50.982;-3.222;2022-08-19T10:15:18;100980.61;;;20.85;45.55
70916;BME280;58557;50.982;-3.222;2022-08-19T10:17:43;100975.41;;;21.56;44.82
70916;BME280;58557;50.982;-3.222;2022-08-19T10:20:10;100978.01;;;21.92;42.26
70916;BME280;58557;50.982;-3.222;2022-08-19T10:22:35;100976.95;;;21.83;42.73
70916;BME280;58557;50.982;-3.222;2022-08-19T10:25:00;100974.95;;;23.82;39.89
70916;BME280;58557;50.982;-3.222;2022-08-19T10:27:25;100977.61;;;22.52;41.39
70916;BME280;58557;50.982;-3.222;2022-08-19T10:29:51;100984.12;;;22.43;40.08
70916;BME280;58557;50.982;-3.222;2022-08-19T10:32:16;100990.49;;;22.48;40.79
70916;BME280;58557;50.982;-3.222;2022-08-19T10:34:42;100985.87;;;23.99;37.53
70916;BME280;58557;50.982;-3.222;2022-08-19T10:37:07;100982.53;;;24.17;37.72
70916;BME280;58557;50.982;-3.222;2022-08-19T10:39:34;100983.04;;;21.58;41.80
70916;BME280;58557;50.982;-3.222;2022-08-19T10:41:58;100989.98;;;23.04;38.89
70916;BME280;58557;50.982;-3.222;2022-08-19T10:44:24;100979.98;;;21.58;40.68
70916;BME280;58557;50.982;-3.222;2022-08-19T10:46:49;100982.98;;;20.93;40.63
70916;BME280;58557;50.982;-3.222;2022-08-19T10:49:15;100976.64;;;21.69;40.33
70916;BME280;58557;50.982;-3.222;2022-08-19T10:51:41;100979.86;;;20.42;41.74
70916;BME280;58557;50.982;-3.222;2022-08-19T10:54:06;100981.26;;;21.98;39.66
70916;BME280;58557;50.982;-3.222;2022-08-19T10:56:33;100986.65;;;22.61;38.79
70916;BME280;58557;50.982;-3.222;2022-08-19T10:58:57;100988.18;;;22.98;38.50
70916;BME280;58557;50.982;-3.222;2022-08-19T11:01:22;100988.12;;;22.32;38.87
70916;BME280;58557;50.982;-3.222;2022-08-19T11:03:48;100989.60;;;22.83;38.86
70916;BME280;58557;50.982;-3.222;2022-08-19T11:06:13;100987.37;;;22.26;39.96
70916;BME280;58557;50.982;-3.222;2022-08-19T11:08:38;100987.02;;;20.61;44.36
70916;BME280;58557;50.982;-3.222;2022-08-19T11:11:05;100985.64;;;21.80;43.10
70916;BME280;58557;50.982;-3.222;2022-08-19T11:13:33;100992.17;;;20.76;42.27
70916;BME280;58557;50.982;-3.222;2022-08-19T11:15:58;100985.17;;;21.98;40.03
70916;BME280;58557;50.982;-3.222;2022-08-19T11:18:20;100988.35;;;22.11;40.70
70916;BME280;58557;50.982;-3.222;2022-08-19T11:20:46;100989.85;;;22.62;40.00
70916;BME280;58557;50.982;-3.222;2022-08-19T11:23:11;100989.36;;;23.31;39.27
70916;BME280;58557;50.982;-3.222;2022-08-19T11:25:38;100991.34;;;22.58;40.22
70916;BME280;58557;50.982;-3.222;2022-08-19T11:28:02;100990.69;;;22.99;38.25
70916;BME280;58557;50.982;-3.222;2022-08-19T11:30:27;100993.62;;;21.50;41.24
70916;BME280;58557;50.982;-3.222;2022-08-19T11:32:53;100989.88;;;21.68;39.45
70916;BME280;58557;50.982;-3.222;2022-08-19T11:35:18;100992.49;;;21.85;39.55
70916;BME280;58557;50.982;-3.222;2022-08-19T11:37:44;100996.37;;;21.22;40.86
70916;BME280;58557;50.982;-3.222;2022-08-19T11:40:10;101002.22;;;22.65;40.41
70916;BME280;58557;50.982;-3.222;2022-08-19T11:43:24;101000.33;;;22.64;38.88
70916;BME280;58557;50.982;-3.222;2022-08-19T11:45:49;100999.03;;;22.81;38.10
70916;BME280;58557;50.982;-3.222;2022-08-19T11:48:15;100998.16;;;21.98;38.49
70916;BME280;58557;50.982;-3.222;2022-08-19T11:50:40;100994.55;;;21.80;41.02
70916;BME280;58557;50.982;-3.222;2022-08-19T11:53:05;100992.88;;;22.38;38.53
70916;BME280;58557;50.982;-3.222;2022-08-19T11:55:31;100985.75;;;22.01;41.33
70916;BME280;58557;50.982;-3.222;2022-08-19T11:57:57;100983.55;;;23.94;36.46
70916;BME280;58557;50.982;-3.222;2022-08-19T12:00:22;100982.72;;;24.24;36.99
70916;BME280;58557;50.982;-3.222;2022-08-19T12:02:47;100988.52;;;22.77;36.63
70916;BME280;58557;50.982;-3.222;2022-08-19T12:05:13;100994.18;;;22.33;36.23
70916;BME280;58557;50.982;-3.222;2022-08-19T12:07:39;100991.71;;;22.14;36.73
70916;BME280;58557;50.982;-3.222;2022-08-19T12:10:05;100989.13;;;22.86;35.97
70916;BME280;58557;50.982;-3.222;2022-08-19T12:12:30;100991.29;;;23.20;36.74
70916;BME280;58557;50.982;-3.222;2022-08-19T12:14:55;100988.56;;;23.73;34.93
70916;BME280;58557;50.982;-3.222;2022-08-19T12:17:21;100991.62;;;22.41;36.16
70916;BME280;58557;50.982;-3.222;2022-08-19T12:19:46;100994.07;;;22.63;36.57
70916;BME280;58557;50.982;-3.222;2022-08-19T12:21:50;67491.37;;;15.48;79.61
70916;BME280;58557;50.982;-3.222;2022-08-19T12:24:15;100989.02;;;24.16;34.97
70916;BME280;58557;50.982;-3.222;2022-08-19T12:26:41;100991.65;;;24.21;35.23
70916;BME280;58557;50.982;-3.222;2022-08-19T12:29:06;100993.87;;;24.11;33.94
70916;BME280;58557;50.982;-3.222;2022-08-19T12:31:32;101000.42;;;22.38;37.14
70916;BME280;58557;50.982;-3.222;2022-08-19T12:33:57;101002.05;;;22.28;36.47
70916;BME280;58557;50.982;-3.222;2022-08-19T12:36:23;100997.93;;;20.76;39.22
70916;BME280;58557;50.982;-3.222;2022-08-19T12:38:49;101000.65;;;21.77;38.93
70916;BME280;58557;50.982;-3.222;2022-08-19T12:41:15;100999.71;;;21.67;39.06
70916;BME280;58557;50.982;-3.222;2022-08-19T12:43:39;101000.56;;;22.45;37.77
70916;BME280;58557;50.982;-3.222;2022-08-19T12:46:05;101001.29;;;21.34;39.17
70916;BME280;58557;50.982;-3.222;2022-08-19T12:48:31;101002.64;;;21.60;39.50
70916;BME280;58557;50.982;-3.222;2022-08-19T12:50:56;101001.71;;;21.70;39.46
70916;BME280;58557;50.982;-3.222;2022-08-19T12:53:23;101006.10;;;22.41;37.60
70916;BME280;58557;50.982;-3.222;2022-08-19T12:55:48;101000.45;;;22.52;38.01
70916;BME280;58557;50.982;-3.222;2022-08-19T12:58:13;101001.81;;;22.93;37.37
70916;BME280;58557;50.982;-3.222;2022-08-19T13:00:39;101004.05;;;21.55;40.44
70916;BME280;58557;50.982;-3.222;2022-08-19T13:03:04;101002.95;;;21.09;41.00
70916;BME280;58557;50.982;-3.222;2022-08-19T13:05:32;101010.41;;;20.82;41.98
70916;BME280;58557;50.982;-3.222;2022-08-19T13:07:56;101012.98;;;21.35;41.64
70916;BME280;58557;50.982;-3.222;2022-08-19T13:10:21;101013.81;;;21.49;40.54
70916;BME280;58557;50.982;-3.222;2022-08-19T13:12:48;101015.83;;;21.24;42.23
70916;BME280;58557;50.982;-3.222;2022-08-19T13:15:12;101019.03;;;23.24;39.50
70916;BME280;58557;50.982;-3.222;2022-08-19T13:17:37;101018.43;;;22.31;38.74
70916;BME280;58557;50.982;-3.222;2022-08-19T13:20:03;101008.37;;;22.07;37.80
70916;BME280;58557;50.982;-3.222;2022-08-19T13:22:28;101013.51;;;22.05;37.38
70916;BME280;58557;50.982;-3.222;2022-08-19T13:24:53;101014.35;;;20.42;38.57
70916;BME280;58557;50.982;-3.222;2022-08-19T13:27:19;101020.57;;;21.03;38.54
70916;BME280;58557;50.982;-3.222;2022-08-19T13:29:44;101010.06;;;21.89;37.86
70916;BME280;58557;50.982;-3.222;2022-08-19T13:32:10;101004.56;;;21.87;37.15
70916;BME280;58557;50.982;-3.222;2022-08-19T13:34:35;101006.96;;;22.42;36.89
70916;BME280;58557;50.982;-3.222;2022-08-19T13:37:02;101001.21;;;21.69;38.62
70916;BME280;58557;50.982;-3.222;2022-08-19T13:39:26;100999.72;;;21.90;37.84
70916;BME280;58557;50.982;-3.222;2022-08-19T13:41:52;101000.99;;;23.07;36.52
70916;BME280;58557;50.982;-3.222;2022-08-19T13:44:18;100998.54;;;22.47;37.26
70916;BME280;58557;50.982;-3.222;2022-08-19T13:46:43;100997.38;;;22.29;37.07
70916;BME280;58557;50.982;-3.222;2022-08-19T13:49:08;101000.12;;;22.52;36.37
70916;BME280;58557;50.982;-3.222;2022-08-19T13:51:34;100996.77;;;23.50;35.22
70916;BME280;58557;50.982;-3.222;2022-08-19T13:53:59;100993.47;;;23.38;34.27
70916;BME280;58557;50.982;-3.222;2022-08-19T13:56:25;100995.34;;;23.67;34.40
70916;BME280;58557;50.982;-3.222;2022-08-19T13:58:50;100995.52;;;22.72;35.24
70916;BME280;58557;50.982;-3.222;2022-08-19T14:01:19;100992.55;;;21.40;37.52
70916;BME280;58557;50.982;-3.222;2022-08-19T14:03:41;101001.90;;;22.80;37.92
70916;BME280;58557;50.982;-3.222;2022-08-19T14:06:07;100997.29;;;23.28;35.00
70916;BME280;58557;50.982;-3.222;2022-08-19T14:08:32;101001.04;;;22.77;35.62
70916;BME280;58557;50.982;-3.222;2022-08-19T14:10:58;100997.62;;;23.32;34.55
70916;BME280;58557;50.982;-3.222;2022-08-19T14:13:24;100995.50;;;23.47;33.31
70916;BME280;58557;50.982;-3.222;2022-08-19T14:15:49;101000.61;;;23.36;34.02
70916;BME280;58557;50.982;-3.222;2022-08-19T14:18:15;101002.77;;;21.85;36.49
70916;BME280;58557;50.982;-3.222;2022-08-19T14:20:41;101006.23;;;22.65;34.90
70916;BME280;58557;50.982;-3.222;2022-08-19T14:23:05;101003.32;;;22.83;35.66
70916;BME280;58557;50.982;-3.222;2022-08-19T14:25:32;101006.96;;;22.86;34.87
70916;BME280;58557;50.982;-3.222;2022-08-19T14:27:57;101004.89;;;21.76;37.24
70916;BME280;58557;50.982;-3.222;2022-08-19T14:30:24;101009.76;;;21.78;37.74
70916;BME280;58557;50.982;-3.222;2022-08-19T14:32:47;101009.57;;;22.22;37.72
70916;BME280;58557;50.982;-3.222;2022-08-19T14:35:15;101015.77;;;23.30;36.33
70916;BME280;58557;50.982;-3.222;2022-08-19T14:37:40;101016.04;;;23.19;35.84
70916;BME280;58557;50.982;-3.222;2022-08-19T14:40:05;101014.58;;;23.64;35.19
70916;BME280;58557;50.982;-3.222;2022-08-19T14:42:30;101012.61;;;21.46;38.83
70916;BME280;58557;50.982;-3.222;2022-08-19T14:44:58;101015.74;;;21.56;37.93
70916;BME280;58557;50.982;-3.222;2022-08-19T14:47:20;101022.36;;;22.61;37.42
70916;BME280;58557;50.982;-3.222;2022-08-19T14:49:46;101022.88;;;21.93;37.89
70916;BME280;58557;50.982;-3.222;2022-08-19T14:52:12;101026.82;;;22.06;37.77
70916;BME280;58557;50.982;-3.222;2022-08-19T14:54:37;101024.03;;;21.36;38.58
70916;BME280;58557;50.982;-3.222;2022-08-19T14:57:03;101021.70;;;21.44;38.19
70916;BME280;58557;50.982;-3.222;2022-08-19T14:59:28;101028.30;;;22.28;38.09
70916;BME280;58557;50.982;-3.222;2022-08-19T15:01:54;101022.68;;;21.62;37.93
70916;BME280;58557;50.982;-3.222;2022-08-19T15:04:19;101029.80;;;22.64;36.76
70916;BME280;58557;50.982;-3.222;2022-08-19T15:06:45;101025.35;;;21.65;38.86
70916;BME280;58557;50.982;-3.222;2022-08-19T15:09:10;101031.14;;;20.81;39.20
70916;BME280;58557;50.982;-3.222;2022-08-19T15:11:36;101036.58;;;21.68;37.63
70916;BME280;58557;50.982;-3.222;2022-08-19T15:14:02;101032.05;;;21.42;36.86
70916;BME280;58557;50.982;-3.222;2022-08-19T15:16:27;101031.59;;;21.24;37.42
70916;BME280;58557;50.982;-3.222;2022-08-19T15:18:55;101032.07;;;21.42;37.46
70916;BME280;58557;50.982;-3.222;2022-08-19T15:21:18;101032.15;;;21.47;35.44
70916;BME280;58557;50.982;-3.222;2022-08-19T15:23:44;101033.98;;;21.25;35.87
70916;BME280;58557;50.982;-3.222;2022-08-19T15:26:09;101036.16;;;22.21;35.05
70916;BME280;58557;50.982;-3.222;2022-08-19T15:28:35;101033.12;;;21.62;35.05
70916;BME280;58557;50.982;-3.222;2022-08-19T15:31:05;101030.16;;;21.81;34.24
70916;BME280;58557;50.982;-3.222;2022-08-19T15:33:26;101035.03;;;20.35;36.66
70916;BME280;58557;50.982;-3.222;2022-08-19T15:35:51;101041.90;;;20.30;36.91
70916;BME280;58557;50.982;-3.222;2022-08-19T15:38:17;101043.07;;;20.17;36.85
70916;BME280;58557;50.982;-3.222;2022-08-19T15:40:42;101038.73;;;21.27;34.94
70916;BME280;58557;50.982;-3.222;2022-08-19T15:43:08;101041.82;;;19.72;37.21
70916;BME280;58557;50.982;-3.222;2022-08-19T15:45:33;101036.67;;;21.21;36.36
70916;BME280;58557;50.982;-3.222;2022-08-19T15:48:00;101042.76;;;21.74;35.58
70916;BME280;58557;50.982;-3.222;2022-08-19T15:50:25;101038.71;;;20.23;38.03
70916;BME280;58557;50.982;-3.222;2022-08-19T15:52:52;101042.15;;;19.97;39.04
70916;BME280;58557;50.982;-3.222;2022-08-19T15:55:15;101044.51;;;21.52;36.54
70916;BME280;58557;50.982;-3.222;2022-08-19T15:57:41;101047.73;;;21.89;34.86
70916;BME280;58557;50.982;-3.222;2022-08-19T16:00:07;101052.04;;;22.63;34.56
70916;BME280;58557;50.982;-3.222;2022-08-19T16:02:33;101050.96;;;22.71;33.73
70916;BME280;58557;50.982;-3.222;2022-08-19T16:04:57;101050.79;;;21.25;35.59
70916;BME280;58557;50.982;-3.222;2022-08-19T16:07:23;101052.34;;;21.39;35.55
70916;BME280;58557;50.982;-3.222;2022-08-19T16:09:48;101054.63;;;22.41;34.90
70916;BME280;58557;50.982;-3.222;2022-08-19T16:12:14;101053.88;;;21.26;34.14
70916;BME280;58557;50.982;-3.222;2022-08-19T16:14:39;101054.97;;;21.28;35.02
70916;BME280;58557;50.982;-3.222;2022-08-19T16:17:05;101056.70;;;21.21;34.99
70916;BME280;58557;50.982;-3.222;2022-08-19T16:19:30;101065.07;;;21.74;36.03
70916;BME280;58557;50.982;-3.222;2022-08-19T16:21:56;101071.73;;;19.04;38.69
70916;BME280;58557;50.982;-3.222;2022-08-19T16:24:24;101068.33;;;20.08;37.60
70916;BME280;58557;50.982;-3.222;2022-08-19T16:26:47;101066.25;;;20.86;36.40
70916;BME280;58557;50.982;-3.222;2022-08-19T16:29:14;101057.99;;;21.33;35.45
70916;BME280;58557;50.982;-3.222;2022-08-19T16:31:39;101058.52;;;21.91;36.17
70916;BME280;58557;50.982;-3.222;2022-08-19T16:34:04;101057.97;;;20.95;35.95
70916;BME280;58557;50.982;-3.222;2022-08-19T16:36:30;101050.62;;;20.29;37.61
70916;BME280;58557;50.982;-3.222;2022-08-19T16:38:55;101051.00;;;19.97;37.29
70916;BME280;58557;50.982;-3.222;2022-08-19T16:41:21;101055.48;;;20.10;36.94
70916;BME280;58557;50.982;-3.222;2022-08-19T16:43:46;101054.96;;;20.17;36.65
70916;BME280;58557;50.982;-3.222;2022-08-19T16:46:12;101056.18;;;19.72;37.95
70916;BME280;58557;50.982;-3.222;2022-08-19T16:48:37;101067.08;;;19.46;37.05
70916;BME280;58557;50.982;-3.222;2022-08-19T16:51:03;101056.52;;;20.26;35.81
70916;BME280;58557;50.982;-3.222;2022-08-19T16:53:28;101058.15;;;19.48;37.42
70916;BME280;58557;50.982;-3.222;2022-08-19T16:55:55;101064.51;;;19.85;36.53
70916;BME280;58557;50.982;-3.222;2022-08-19T16:58:20;101060.22;;;19.58;37.66
70916;BME280;58557;50.982;-3.222;2022-08-19T17:00:46;101057.39;;;20.11;36.14
70916;BME280;58557;50.982;-3.222;2022-08-19T17:03:11;101060.87;;;20.35;35.99
70916;BME280;58557;50.982;-3.222;2022-08-19T17:05:41;101062.63;;;21.10;35.28
70916;BME280;58557;50.982;-3.222;2022-08-19T17:08:02;101061.39;;;19.86;37.20
70916;BME280;58557;50.982;-3.222;2022-08-19T17:10:28;101055.98;;;20.15;36.22
70916;BME280;58557;50.982;-3.222;2022-08-19T17:12:53;101056.06;;;20.29;35.98
70916;BME280;58557;50.982;-3.222;2022-08-19T17:15:19;101052.64;;;20.73;35.79
70916;BME280;58557;50.982;-3.222;2022-08-19T17:17:44;101061.23;;;20.93;35.11
70916;BME280;58557;50.982;-3.222;2022-08-19T17:20:10;101061.10;;;19.87;36.43
70916;BME280;58557;50.982;-3.222;2022-08-19T17:22:36;101062.60;;;19.90;36.16
70916;BME280;58557;50.982;-3.222;2022-08-19T17:25:02;101064.65;;;20.73;34.49
70916;BME280;58557;50.982;-3.222;2022-08-19T17:27:27;101070.26;;;19.95;36.32
70916;BME280;58557;50.982;-3.222;2022-08-19T17:29:52;101071.76;;;19.95;37.05
70916;BME280;58557;50.982;-3.222;2022-08-19T17:32:18;101074.66;;;20.51;35.56
70916;BME280;58557;50.982;-3.222;2022-08-19T17:34:43;101069.90;;;19.28;37.36
70916;BME280;58557;50.982;-3.222;2022-08-19T17:37:09;101066.77;;;20.08;37.10
70916;BME280;58557;50.982;-3.222;2022-08-19T17:39:35;101067.12;;;21.08;35.28
70916;BME280;58557;50.982;-3.222;2022-08-19T17:42:00;101064.48;;;20.69;37.37
70916;BME280;58557;50.982;-3.222;2022-08-19T17:44:26;101068.65;;;20.54;37.08
70916;BME280;58557;50.982;-3.222;2022-08-19T17:46:52;101068.82;;;20.33;37.15
70916;BME280;58557;50.982;-3.222;2022-08-19T17:49:17;101067.68;;;20.15;38.00
70916;BME280;58557;50.982;-3.222;2022-08-19T17:51:44;101068.01;;;21.02;36.46
70916;BME280;58557;50.982;-3.222;2022-08-19T17:54:10;101068.57;;;19.88;39.04
70916;BME280;58557;50.982;-3.222;2022-08-19T17:56:34;101068.82;;;20.37;38.37
70916;BME280;58557;50.982;-3.222;2022-08-19T17:58:59;101072.19;;;21.10;37.26
70916;BME280;58557;50.982;-3.222;2022-08-19T18:01:25;101071.42;;;20.98;38.02
70916;BME280;58557;50.982;-3.222;2022-08-19T18:03:51;101075.28;;;21.02;38.18
70916;BME280;58557;50.982;-3.222;2022-08-19T18:06:16;101078.72;;;20.07;39.79
70916;BME280;58557;50.982;-3.222;2022-08-19T18:08:42;101083.43;;;19.00;42.05
70916;BME280;58557;50.982;-3.222;2022-08-19T18:11:08;101080.27;;;20.00;40.98
70916;BME280;58557;50.982;-3.222;2022-08-19T18:13:34;101081.90;;;19.80;41.47
70916;BME280;58557;50.982;-3.222;2022-08-19T18:16:00;101085.74;;;19.64;42.10
70916;BME280;58557;50.982;-3.222;2022-08-19T18:18:25;101091.49;;;18.88;43.75
70916;BME280;58557;50.982;-3.222;2022-08-19T18:20:50;101090.05;;;19.66;43.58
70916;BME280;58557;50.982;-3.222;2022-08-19T18:23:15;101093.31;;;19.32;44.71
70916;BME280;58557;50.982;-3.222;2022-08-19T18:25:41;101092.56;;;18.90;45.38
70916;BME280;58557;50.982;-3.222;2022-08-19T18:28:07;101087.72;;;20.32;43.21
70916;BME280;58557;50.982;-3.222;2022-08-19T18:30:32;101090.33;;;19.30;44.59
70916;BME280;58557;50.982;-3.222;2022-08-19T18:32:58;101094.72;;;20.83;41.77
70916;BME280;58557;50.982;-3.222;2022-08-19T18:35:27;101095.48;;;20.28;42.47
70916;BME280;58557;50.982;-3.222;2022-08-19T18:37:49;101098.74;;;19.66;44.37
70916;BME280;58557;50.982;-3.222;2022-08-19T18:40:18;101099.80;;;20.10;43.16
70916;BME280;58557;50.982;-3.222;2022-08-19T18:42:42;101098.71;;;20.27;42.95
70916;BME280;58557;50.982;-3.222;2022-08-19T18:45:06;101104.77;;;19.32;45.09
70916;BME280;58557;50.982;-3.222;2022-08-19T18:47:31;101105.94;;;19.26;44.74
70916;BME280;58557;50.982;-3.222;2022-08-19T18:49:57;101112.93;;;18.62;47.02
70916;BME280;58557;50.982;-3.222;2022-08-19T18:52:22;101112.10;;;17.60;49.94
70916;BME280;58557;50.982;-3.222;2022-08-19T18:54:48;101121.89;;;18.49;48.90
70916;BME280;58557;50.982;-3.222;2022-08-19T18:57:14;101127.83;;;19.33;47.08
70916;BME280;58557;50.982;-3.222;2022-08-19T18:59:40;101127.90;;;19.72;45.65
70916;BME280;58557;50.982;-3.222;2022-08-19T19:02:05;101130.25;;;19.41;47.11
70916;BME280;58557;50.982;-3.222;2022-08-19T19:04:31;101127.12;;;18.77;48.66
70916;BME280;58557;50.982;-3.222;2022-08-19T19:06:56;101131.35;;;19.23;47.89
70916;BME280;58557;50.982;-3.222;2022-08-19T19:09:23;101131.14;;;19.95;47.25
70916;BME280;58557;50.982;-3.222;2022-08-19T19:11:50;101135.48;;;19.36;47.90
70916;BME280;58557;50.982;-3.222;2022-08-19T19:14:17;101137.81;;;20.07;46.70
70916;BME280;58557;50.982;-3.222;2022-08-19T19:16:40;101136.37;;;19.72;46.29
70916;BME280;58557;50.982;-3.222;2022-08-19T19:19:05;101134.15;;;20.17;46.50
70916;BME280;58557;50.982;-3.222;2022-08-19T19:21:30;101135.08;;;20.65;45.22
70916;BME280;58557;50.982;-3.222;2022-08-19T19:23:55;101139.67;;;19.77;47.02
70916;BME280;58557;50.982;-3.222;2022-08-19T19:26:22;101136.66;;;21.22;44.49
70916;BME280;58557;50.982;-3.222;2022-08-19T19:28:47;101138.02;;;19.89;46.25
70916;BME280;58557;50.982;-3.222;2022-08-19T19:31:16;101142.01;;;19.30;48.62
70916;BME280;58557;50.982;-3.222;2022-08-19T19:33:38;101139.88;;;20.32;47.14
70916;BME280;58557;50.982;-3.222;2022-08-19T19:36:04;101137.85;;;20.53;46.62
70916;BME280;58557;50.982;-3.222;2022-08-19T19:38:29;101142.34;;;21.12;44.86
70916;BME280;58557;50.982;-3.222;2022-08-19T19:40:54;101146.03;;;20.91;45.05
70916;BME280;58557;50.982;-3.222;2022-08-19T19:43:20;101146.87;;;20.89;44.90
70916;BME280;58557;50.982;-3.222;2022-08-19T19:45:46;101152.72;;;20.08;46.07
70916;BME280;58557;50.982;-3.222;2022-08-19T19:48:11;101155.75;;;19.33;47.63
70916;BME280;58557;50.982;-3.222;2022-08-19T19:50:36;101160.11;;;18.63;49.45
70916;BME280;58557;50.982;-3.222;2022-08-19T19:53:02;101169.44;;;17.25;54.59
70916;BME280;58557;50.982;-3.222;2022-08-19T19:55:27;101179.92;;;17.77;53.93
70916;BME280;58557;50.982;-3.222;2022-08-19T19:57:53;101177.49;;;16.73;57.88
70916;BME280;58557;50.982;-3.222;2022-08-19T20:00:19;101180.43;;;16.22;60.10
70916;BME280;58557;50.982;-3.222;2022-08-19T20:02:44;101188.39;;;15.64;62.56
70916;BME280;58557;50.982;-3.222;2022-08-19T20:05:10;101189.28;;;15.88;61.75
70916;BME280;58557;50.982;-3.222;2022-08-19T20:07:36;101186.11;;;17.00;58.29
70916;BME280;58557;50.982;-3.222;2022-08-19T20:10:02;101185.52;;;17.31;55.95
70916;BME280;58557;50.982;-3.222;2022-08-19T20:12:27;101182.59;;;17.64;54.94
70916;BME280;58557;50.982;-3.222;2022-08-19T20:14:52;101181.94;;;18.56;53.18
70916;BME280;58557;50.982;-3.222;2022-08-19T20:17:18;101176.88;;;17.60;54.57
70916;BME280;58557;50.982;-3.222;2022-08-19T20:19:43;101177.84;;;17.57;54.16
70916;BME280;58557;50.982;-3.222;2022-08-19T20:22:09;101176.01;;;18.74;51.05
70916;BME280;58557;50.982;-3.222;2022-08-19T20:24:35;101179.67;;;18.96;50.45
70916;BME280;58557;50.982;-3.222;2022-08-19T20:27:02;101184.95;;;19.44;48.67
70916;BME280;58557;50.982;-3.222;2022-08-19T20:29:27;101180.89;;;18.81;50.28
70916;BME280;58557;50.982;-3.222;2022-08-19T20:31:52;101179.94;;;18.77;49.97
70916;BME280;58557;50.982;-3.222;2022-08-19T20:34:17;101179.78;;;18.88;50.46
70916;BME280;58557;50.982;-3.222;2022-08-19T20:36:43;101182.59;;;18.99;50.06
70916;BME280;58557;50.982;-3.222;2022-08-19T20:39:09;101182.76;;;17.94;51.62
70916;BME280;58557;50.982;-3.222;2022-08-19T20:41:34;101185.52;;;18.78;49.91
70916;BME280;58557;50.982;-3.222;2022-08-19T20:44:00;101186.44;;;19.10;49.16
70916;BME280;58557;50.982;-3.222;2022-08-19T20:46:25;101184.87;;;18.27;50.29
70916;BME280;58557;50.982;-3.222;2022-08-19T20:48:51;101188.30;;;19.24;48.60
70916;BME280;58557;50.982;-3.222;2022-08-19T20:51:17;101187.03;;;18.62;49.34
70916;BME280;58557;50.982;-3.222;2022-08-19T20:53:42;101186.97;;;17.96;50.37
70916;BME280;58557;50.982;-3.222;2022-08-19T20:56:08;101187.38;;;18.23;50.38
70916;BME280;58557;50.982;-3.222;2022-08-19T20:58:34;101190.33;;;19.15;48.92
70916;BME280;58557;50.982;-3.222;2022-08-19T21:01:01;101189.47;;;18.20;50.76
70916;BME280;58557;50.982;-3.222;2022-08-19T21:03:28;101189.37;;;19.23;48.04
70916;BME280;58557;50.982;-3.222;2022-08-19T21:05:51;101188.57;;;18.14;50.43
70916;BME280;58557;50.982;-3.222;2022-08-19T21:08:17;101189.67;;;18.14;50.82
70916;BME280;58557;50.982;-3.222;2022-08-19T21:10:42;101188.69;;;17.76;51.17
70916;BME280;58557;50.982;-3.222;2022-08-19T21:13:07;101194.36;;;18.47;50.10
70916;BME280;58557;50.982;-3.222;2022-08-19T21:15:33;101193.72;;;18.91;49.83
70916;BME280;58557;50.982;-3.222;2022-08-19T21:17:59;101192.96;;;18.84;49.87
70916;BME280;58557;50.982;-3.222;2022-08-19T21:20:24;101195.16;;;18.87;49.50
70916;BME280;58557;50.982;-3.222;2022-08-19T21:22:50;101198.15;;;18.18;51.38
70916;BME280;58557;50.982;-3.222;2022-08-19T21:25:16;101196.58;;;18.97;49.95
70916;BME280;58557;50.982;-3.222;2022-08-19T21:27:41;101194.85;;;17.55;52.98
70916;BME280;58557;50.982;-3.222;2022-08-19T21:30:08;101192.97;;;18.79;50.80
70916;BME280;58557;50.982;-3.222;2022-08-19T21:32:32;101190.40;;;18.98;50.30
70916;BME280;58557;50.982;-3.222;2022-08-19T21:34:58;101192.25;;;18.93;50.88
70916;BME280;58557;50.982;-3.222;2022-08-19T21:37:24;101192.89;;;18.93;50.91
70916;BME280;58557;50.982;-3.222;2022-08-19T21:39:49;101190.86;;;18.13;51.15
70916;BME280;58557;50.982;-3.222;2022-08-19T21:42:15;101190.67;;;17.99;52.80
70916;BME280;58557;50.982;-3.222;2022-08-19T21:44:40;101191.92;;;18.43;51.83
70916;BME280;58557;50.982;-3.222;2022-08-19T21:47:06;101189.36;;;18.85;51.25
70916;BME280;58557;50.982;-3.222;2022-08-19T21:49:32;101190.39;;;18.39;52.42
70916;BME280;58557;50.982;-3.222;2022-08-19T21:51:57;101190.14;;;17.88;53.35
70916;BME280;58557;50.982;-3.222;2022-08-19T21:54:23;101188.24;;;18.71;51.77
70916;BME280;58557;50.982;-3.222;2022-08-19T21:56:48;101190.63;;;18.69;52.08